Time;durP1;ratioP1;P1;durP2;ratioP2;P2;SDS_P1;SDS_P2;PMS_P1;PMS_P2;Temp;Humidity;BMP_temperature;BMP_pressure;BME280_temperature;BME280_humidity;BME280_pressure;Samples;Min_cycle;Max_cycle;Signal;HPM_P1;HPM_P2
2024/04/05 00:00:43;;;;;;;5.72;1.30;;;11.10;99.90;;;;;;5060191;28;20049;-82
2024/04/05 00:03:09;;;;;;;4.15;1.25;;;11.10;99.90;;;;;;5039486;28;20048;-82
2024/04/05 00:05:35;;;;;;;6.47;0.93;;;11.10;99.90;;;;;;5072760;28;20082;-82
2024/04/05 00:08:02;;;;;;;3.42;0.63;;;11.10;99.90;;;;;;5062010;28;20051;-83
2024/04/05 00:10:28;;;;;;;2.58;0.50;;;11.10;99.90;;;;;;5063996;28;20048;-82
2024/04/05 00:12:54;;;;;;;3.95;0.60;;;11.10;99.90;;;;;;5056020;28;20043;-83
2024/04/05 00:15:20;;;;;;;5.95;0.95;;;11.10;99.90;;;;;;5072744;28;20029;-83
2024/04/05 00:17:47;;;;;;;4.95;1.30;;;11.20;99.90;;;;;;5049762;28;20048;-82
2024/04/05 00:20:13;;;;;;;7.03;0.80;;;11.20;99.90;;;;;;5072733;28;20037;-82
2024/04/05 00:22:39;;;;;;;8.10;1.58;;;11.30;99.90;;;;;;5060563;28;20097;-82
2024/04/05 00:25:06;;;;;;;5.25;0.55;;;11.30;99.90;;;;;;5052444;28;20086;-82
2024/04/05 00:27:32;;;;;;;6.68;1.10;;;11.20;99.90;;;;;;5043639;28;20481;-82
2024/04/05 00:30:01;;;;;;;8.43;0.93;;;11.30;99.90;;;;;;5059214;28;20415;-83
2024/04/05 00:32:27;;;;;;;5.47;1.55;;;11.30;99.90;;;;;;5039088;28;20029;-83
2024/04/05 00:34:53;;;;;;;4.85;1.08;;;11.40;99.90;;;;;;5065921;28;20090;-83
2024/04/05 00:37:19;;;;;;;5.00;0.98;;;11.40;99.90;;;;;;5023788;28;20090;-82
2024/04/05 00:39:45;;;;;;;3.60;1.10;;;11.50;99.90;;;;;;5047179;28;20044;-82
2024/04/05 00:42:11;;;;;;;7.15;1.35;;;11.50;99.90;;;;;;5059118;28;20109;-83
2024/04/05 00:44:37;;;;;;;8.85;1.23;;;11.50;99.90;;;;;;5049795;28;20045;-82
2024/04/05 00:47:03;;;;;;;4.70;1.00;;;11.60;99.90;;;;;;5055849;28;20053;-84
2024/04/05 00:49:29;;;;;;;8.27;1.35;;;11.50;99.90;;;;;;5038878;28;20051;-83
2024/04/05 00:51:57;;;;;;;7.90;1.30;;;11.50;99.90;;;;;;5035641;28;20426;-83
2024/04/05 00:54:23;;;;;;;7.63;1.50;;;11.50;99.90;;;;;;5057460;28;20041;-83
2024/04/05 00:56:49;;;;;;;4.32;0.77;;;11.60;99.90;;;;;;5035526;28;20041;-83
2024/04/05 00:59:15;;;;;;;5.85;0.68;;;11.60;99.90;;;;;;5036715;28;20090;-82
2024/04/05 01:01:42;;;;;;;7.13;0.93;;;11.60;99.90;;;;;;5038769;28;20045;-83
2024/04/05 01:04:10;;;;;;;9.05;0.80;;;11.60;99.90;;;;;;5066647;28;20063;-83
2024/04/05 01:06:36;;;;;;;4.30;0.68;;;11.70;99.90;;;;;;5043383;28;20115;-83
2024/04/05 01:09:04;;;;;;;5.95;1.08;;;11.70;99.90;;;;;;5052181;28;20037;-82
2024/04/05 01:11:31;;;;;;;6.85;1.10;;;11.70;99.90;;;;;;5051920;28;20413;-83
2024/04/05 01:13:57;;;;;;;9.75;1.20;;;11.80;99.90;;;;;;5022314;28;20045;-82
2024/04/05 01:16:23;;;;;;;8.80;0.95;;;11.80;99.90;;;;;;5043710;28;20040;-82
2024/04/05 01:18:52;;;;;;;10.13;2.05;;;11.80;99.90;;;;;;5075088;28;20043;-83
2024/04/05 01:21:21;;;;;;;7.32;1.13;;;11.90;99.90;;;;;;5061064;28;20036;-83
2024/04/05 01:23:48;;;;;;;7.55;0.90;;;11.90;99.90;;;;;;5058473;28;20052;-83
2024/04/05 01:26:14;;;;;;;8.55;1.40;;;11.90;99.90;;;;;;5037333;28;20051;-83
2024/04/05 01:28:40;;;;;;;8.32;1.05;;;11.90;99.90;;;;;;5071565;28;20037;-83
2024/04/05 01:31:06;;;;;;;8.05;1.20;;;11.90;99.90;;;;;;5054850;28;20507;-83
2024/04/05 01:33:32;;;;;;;3.13;0.55;;;11.90;99.90;;;;;;5037027;28;20183;-83
2024/04/05 01:35:58;;;;;;;3.88;0.50;;;11.90;99.90;;;;;;5074784;28;20438;-83
2024/04/05 01:38:24;;;;;;;4.35;0.90;;;11.90;99.90;;;;;;5041743;28;20052;-83
2024/04/05 01:40:52;;;;;;;3.03;0.77;;;11.90;99.90;;;;;;5045097;28;20032;-83
2024/04/05 01:43:18;;;;;;;2.22;0.40;;;11.90;99.90;;;;;;5047334;28;20044;-83
2024/04/05 01:45:44;;;;;;;3.47;0.70;;;12.00;99.90;;;;;;5070105;28;20397;-83
2024/04/05 01:48:10;;;;;;;3.78;0.60;;;12.00;99.90;;;;;;5043312;28;20386;-83
2024/04/05 01:50:37;;;;;;;4.55;0.75;;;12.00;99.90;;;;;;5060529;28;20036;-83
2024/04/05 01:53:03;;;;;;;3.63;0.55;;;12.00;99.90;;;;;;5053378;28;20045;-83
2024/04/05 01:55:31;;;;;;;4.60;0.70;;;12.00;99.90;;;;;;5055756;28;20070;-83
2024/04/05 01:57:57;;;;;;;5.20;0.70;;;12.00;99.90;;;;;;5065636;28;20037;-83
2024/04/05 02:00:23;;;;;;;4.13;0.70;;;12.00;99.90;;;;;;5042371;28;20071;-83
2024/04/05 02:02:53;;;;;;;2.97;0.63;;;12.00;99.90;;;;;;5044780;28;20157;-83
2024/04/05 02:05:19;;;;;;;5.43;0.63;;;12.00;99.90;;;;;;5055555;28;20085;-83
2024/04/05 02:07:45;;;;;;;8.57;1.10;;;12.00;99.90;;;;;;5073934;28;20063;-83
2024/04/05 02:10:11;;;;;;;3.80;0.50;;;12.00;99.90;;;;;;5028579;28;20032;-83
2024/04/05 02:12:37;;;;;;;4.93;0.63;;;12.00;99.90;;;;;;5040539;28;20041;-83
2024/04/05 02:15:03;;;;;;;3.20;0.38;;;12.00;99.90;;;;;;5049434;28;20045;-83
2024/04/05 02:17:29;;;;;;;6.80;0.82;;;12.00;99.90;;;;;;5071062;28;20052;-83
2024/04/05 02:19:55;;;;;;;4.10;0.30;;;12.00;99.90;;;;;;5026917;28;20052;-83
2024/04/05 02:22:21;;;;;;;6.60;0.57;;;11.90;99.90;;;;;;5041923;28;20048;-82
2024/04/05 02:24:47;;;;;;;5.95;0.77;;;11.90;99.90;;;;;;5054981;28;20519;-83
2024/04/05 02:27:13;;;;;;;6.22;0.57;;;11.90;99.90;;;;;;5061620;28;20098;-83
2024/04/05 02:29:39;;;;;;;3.13;0.40;;;11.90;99.90;;;;;;5052741;28;20079;-83
2024/04/05 02:32:05;;;;;;;4.18;0.50;;;11.80;99.90;;;;;;5040203;28;20045;-83
2024/04/05 02:34:31;;;;;;;3.05;0.30;;;11.80;99.90;;;;;;5015005;28;20049;-83
2024/04/05 02:36:57;;;;;;;4.05;0.50;;;11.70;99.90;;;;;;5039981;28;20052;-83
2024/04/05 02:39:23;;;;;;;3.33;0.38;;;11.70;99.90;;;;;;5048022;28;20060;-83
2024/04/05 02:41:49;;;;;;;2.60;0.55;;;11.60;99.90;;;;;;5054669;28;20139;-83
2024/04/05 02:44:15;;;;;;;2.45;0.20;;;11.60;99.90;;;;;;5047761;28;20569;-83
2024/04/05 02:46:42;;;;;;;5.03;0.63;;;11.60;99.90;;;;;;5041074;28;20040;-83
2024/04/05 02:49:08;;;;;;;3.08;0.43;;;11.70;99.90;;;;;;5060093;28;20040;-83
2024/04/05 02:51:37;;;;;;;3.50;0.30;;;11.60;99.90;;;;;;5064056;28;20434;-82
2024/04/05 02:54:03;;;;;;;1.40;0.30;;;11.60;99.90;;;;;;5044097;28;20055;-83
2024/04/05 02:56:29;;;;;;;1.02;0.20;;;11.60;99.90;;;;;;5048367;28;20040;-83
2024/04/05 02:58:58;;;;;;;2.75;0.40;;;11.60;99.90;;;;;;5036042;28;20076;-83
2024/04/05 03:01:24;;;;;;;6.00;0.57;;;11.70;99.90;;;;;;5057881;28;20460;-82
2024/04/05 03:03:51;;;;;;;4.65;0.60;;;11.70;99.90;;;;;;5059812;28;20058;-82
2024/04/05 03:06:19;;;;;;;5.00;0.70;;;11.70;99.90;;;;;;5078989;28;20040;-82
2024/04/05 03:08:45;;;;;;;8.85;1.02;;;11.70;99.90;;;;;;5070343;28;20101;-83
2024/04/05 03:11:11;;;;;;;6.78;0.90;;;11.70;99.90;;;;;;5049870;28;20040;-82
2024/04/05 03:13:38;;;;;;;4.10;0.60;;;11.70;99.90;;;;;;5053009;28;20560;-82
2024/04/05 03:16:04;;;;;;;3.15;0.55;;;11.70;99.90;;;;;;5042766;28;20051;-82
2024/04/05 03:18:31;;;;;;;1.98;0.60;;;11.70;99.90;;;;;;5037185;28;20033;-82
2024/04/05 03:20:58;;;;;;;5.43;1.10;;;11.60;99.90;;;;;;5049230;28;20052;-82
2024/04/05 03:23:24;;;;;;;3.45;0.52;;;11.60;99.90;;;;;;5046863;28;20048;-82
2024/04/05 03:25:50;;;;;;;2.45;0.65;;;11.60;99.90;;;;;;5063968;28;20052;-82
2024/04/05 03:28:16;;;;;;;2.45;0.30;;;11.60;99.90;;;;;;5072538;28;20040;-82
2024/04/05 03:30:42;;;;;;;2.25;0.55;;;11.60;99.90;;;;;;5040222;28;20178;-82
2024/04/05 03:33:08;;;;;;;4.70;0.63;;;11.60;99.90;;;;;;5039351;28;20076;-82
2024/04/05 03:35:37;;;;;;;6.93;0.50;;;11.60;99.90;;;;;;5062002;28;20523;-82
2024/04/05 03:38:04;;;;;;;4.60;0.50;;;11.70;99.90;;;;;;5052151;28;20048;-84
2024/04/05 03:40:30;;;;;;;3.15;0.50;;;11.70;99.90;;;;;;5053142;28;20049;-82
2024/04/05 03:42:56;;;;;;;5.65;0.80;;;11.70;99.90;;;;;;5030767;28;20049;-82
2024/04/05 03:45:22;;;;;;;3.20;0.50;;;11.70;99.90;;;;;;5035882;28;20389;-82
2024/04/05 03:47:48;;;;;;;4.13;0.60;;;11.70;99.90;;;;;;5056691;28;20051;-82
2024/04/05 03:50:14;;;;;;;5.25;0.60;;;11.70;99.90;;;;;;5070265;28;20032;-82
2024/04/05 03:52:40;;;;;;;2.97;0.60;;;11.70;99.90;;;;;;5036703;28;20048;-82
2024/04/05 03:55:06;;;;;;;5.70;0.90;;;11.70;99.90;;;;;;5015244;28;20045;-82
2024/04/05 03:57:32;;;;;;;6.07;0.80;;;11.70;99.90;;;;;;5044963;28;20496;-83
2024/04/05 03:59:59;;;;;;;3.35;0.38;;;11.70;99.90;;;;;;5053018;28;20080;-83
2024/04/05 04:02:25;;;;;;;7.82;0.77;;;11.60;99.90;;;;;;5027859;28;20078;-83
2024/04/05 04:04:54;;;;;;;3.75;0.63;;;11.60;99.90;;;;;;5047665;28;20059;-83
2024/04/05 04:07:20;;;;;;;5.38;0.45;;;11.60;99.90;;;;;;5041702;28;20094;-83
2024/04/05 04:09:46;;;;;;;5.45;0.68;;;11.60;99.90;;;;;;5017884;28;20132;-83
2024/04/05 04:12:13;;;;;;;5.07;0.82;;;11.60;99.90;;;;;;5056294;28;20032;-83
2024/04/05 04:14:43;;;;;;;2.53;0.40;;;11.60;99.90;;;;;;5055169;28;20086;-83
2024/04/05 04:17:09;;;;;;;4.32;0.45;;;11.60;99.90;;;;;;5057552;28;20495;-83
2024/04/05 04:19:36;;;;;;;1.92;0.40;;;11.60;99.90;;;;;;5055890;28;20515;-83
2024/04/05 04:22:02;;;;;;;6.18;0.43;;;11.60;99.90;;;;;;5004317;28;20501;-83
2024/04/05 04:24:29;;;;;;;3.70;0.50;;;11.60;99.90;;;;;;5029178;28;20424;-83
2024/04/05 04:26:56;;;;;;;2.45;0.40;;;11.60;99.90;;;;;;5044514;28;20063;-82
2024/04/05 04:29:22;;;;;;;3.45;0.50;;;11.60;99.90;;;;;;5029169;28;20048;-83
2024/04/05 04:31:48;;;;;;;4.35;0.52;;;11.60;99.90;;;;;;5052440;28;20032;-83
2024/04/05 04:34:14;;;;;;;2.72;0.60;;;11.60;99.90;;;;;;5046865;28;20076;-83
2024/04/05 04:36:40;;;;;;;2.38;0.50;;;11.60;99.90;;;;;;5046397;28;20041;-83
2024/04/05 04:39:08;;;;;;;3.63;0.50;;;11.60;99.90;;;;;;5059187;28;20083;-82
2024/04/05 04:41:35;;;;;;;2.17;0.40;;;11.60;99.90;;;;;;5075459;28;20496;-83
2024/04/05 04:44:02;;;;;;;2.22;0.35;;;11.60;99.90;;;;;;5037234;28;20513;-83
2024/04/05 04:46:28;;;;;;;1.38;0.32;;;11.50;99.90;;;;;;5038762;28;20040;-82
2024/04/05 04:48:57;;;;;;;4.55;0.80;;;11.50;99.90;;;;;;5059410;28;20451;-83
2024/04/05 04:51:23;;;;;;;3.40;0.43;;;11.50;99.90;;;;;;5043126;28;20500;-83
2024/04/05 04:53:49;;;;;;;3.05;0.60;;;11.50;99.90;;;;;;5036414;28;20041;-83
2024/04/05 04:56:16;;;;;;;2.92;0.30;;;11.50;99.90;;;;;;5035754;28;20048;-82
2024/04/05 04:58:42;;;;;;;5.25;0.50;;;11.50;99.90;;;;;;5038941;28;20047;-83
2024/04/05 05:01:08;;;;;;;3.53;0.57;;;11.50;99.90;;;;;;5038948;28;20051;-83
2024/04/05 05:03:34;;;;;;;2.65;0.80;;;11.50;99.90;;;;;;5049903;28;20044;-79
2024/04/05 05:06:00;;;;;;;2.67;0.50;;;11.50;99.90;;;;;;5015909;28;20131;-78
2024/04/05 05:08:28;;;;;;;1.95;0.30;;;11.50;99.90;;;;;;5043440;28;20045;-79
2024/04/05 05:10:54;;;;;;;2.30;0.38;;;11.50;99.90;;;;;;5034629;28;20052;-78
2024/04/05 05:13:19;;;;;;;3.30;0.95;;;11.60;99.90;;;;;;5035038;28;20412;-78
2024/04/05 05:15:46;;;;;;;2.88;0.77;;;11.60;99.90;;;;;;5040537;28;20052;-79
2024/04/05 05:18:12;;;;;;;1.92;0.30;;;11.60;99.90;;;;;;5055014;28;20508;-79
2024/04/05 05:20:47;;;;;;;1.52;0.30;;;11.60;99.90;;;;;;5038423;28;20044;-79
2024/04/05 05:23:13;;;;;;;2.25;0.40;;;11.60;99.90;;;;;;5043142;28;20102;-79
2024/04/05 05:25:43;;;;;;;2.80;0.50;;;11.60;99.90;;;;;;5051660;28;20411;-78
2024/04/05 05:28:09;;;;;;;3.88;0.50;;;11.70;99.90;;;;;;5028387;28;20500;-80
2024/04/05 05:30:36;;;;;;;2.70;0.65;;;11.60;99.90;;;;;;5042464;28;20045;-80
2024/04/05 05:33:07;;;;;;;3.08;0.40;;;11.60;99.90;;;;;;5045010;28;20033;-79
2024/04/05 05:35:33;;;;;;;1.67;0.50;;;11.70;99.90;;;;;;5043803;28;20039;-78
2024/04/05 05:38:01;;;;;;;2.88;0.52;;;11.70;99.90;;;;;;5055822;28;20037;-79
2024/04/05 05:40:27;;;;;;;5.13;0.50;;;11.70;99.90;;;;;;5039476;28;20064;-79
2024/04/05 05:42:53;;;;;;;5.90;0.80;;;11.70;99.90;;;;;;5075639;28;20055;-79
2024/04/05 05:45:23;;;;;;;2.53;0.50;;;11.70;99.90;;;;;;5049480;28;20089;-79
2024/04/05 05:47:53;;;;;;;3.58;0.98;;;11.70;99.90;;;;;;5076937;28;20058;-79
2024/04/05 05:50:21;;;;;;;2.33;0.82;;;11.70;99.90;;;;;;5046149;28;20051;-79
2024/04/05 05:52:47;;;;;;;4.28;0.50;;;11.70;99.90;;;;;;5044081;28;20408;-79
2024/04/05 05:55:14;;;;;;;4.05;0.88;;;11.80;99.90;;;;;;5040110;28;20406;-79
2024/04/05 05:57:40;;;;;;;4.35;0.57;;;11.80;99.90;;;;;;5055862;28;20052;-79
2024/04/05 06:00:09;;;;;;;3.10;0.60;;;11.90;99.90;;;;;;5056620;28;20047;-79
2024/04/05 06:02:39;;;;;;;4.65;0.65;;;11.90;99.90;;;;;;5074956;28;20515;-79
2024/04/05 06:05:11;;;;;;;4.03;0.55;;;12.00;99.90;;;;;;5055471;28;20041;-79
2024/04/05 06:07:37;;;;;;;6.32;0.70;;;12.00;99.90;;;;;;5043153;28;20086;-79
2024/04/05 06:10:04;;;;;;;3.05;0.50;;;12.00;99.90;;;;;;5061953;28;20051;-83
2024/04/05 06:12:30;;;;;;;1.75;0.50;;;12.00;99.90;;;;;;5077694;28;20045;-84
2024/04/05 06:14:58;;;;;;;2.35;0.47;;;12.00;99.90;;;;;;5058549;28;20086;-83
2024/04/05 06:17:25;;;;;;;2.08;0.60;;;12.00;99.90;;;;;;5058624;28;20512;-83
2024/04/05 06:19:55;;;;;;;2.40;0.52;;;12.10;99.90;;;;;;5041840;28;20496;-83
2024/04/05 06:22:27;;;;;;;2.95;0.40;;;12.20;99.90;;;;;;5058052;28;20048;-83
2024/04/05 06:24:54;;;;;;;2.28;0.40;;;12.20;99.90;;;;;;5045056;28;20059;-83
2024/04/05 06:27:20;;;;;;;0.73;0.30;;;12.30;99.90;;;;;;5064073;28;20040;-83
2024/04/05 06:29:53;;;;;;;2.28;0.60;;;12.40;99.90;;;;;;5055969;28;20045;-83
2024/04/05 06:32:19;;;;;;;1.17;0.40;;;12.50;99.90;;;;;;5027674;28;20045;-83
2024/04/05 06:34:46;;;;;;;2.90;0.60;;;12.50;99.90;;;;;;5074280;28;20381;-83
2024/04/05 06:37:15;;;;;;;1.70;0.40;;;12.50;99.90;;;;;;5057895;28;20049;-82
2024/04/05 06:39:41;;;;;;;3.08;0.52;;;12.60;99.90;;;;;;5041501;28;20139;-79
2024/04/05 06:42:10;;;;;;;1.25;0.50;;;12.60;99.90;;;;;;5064635;28;20044;-78
2024/04/05 06:44:39;;;;;;;3.35;0.55;;;12.70;99.90;;;;;;5046965;28;20044;-78
2024/04/05 06:47:09;;;;;;;3.40;0.70;;;12.70;99.90;;;;;;5059752;28;20044;-78
2024/04/05 06:49:39;;;;;;;4.28;0.55;;;12.80;99.90;;;;;;5064386;28;20039;-79
2024/04/05 06:52:07;;;;;;;2.63;0.60;;;12.80;99.90;;;;;;5046256;28;20044;-79
2024/04/05 06:54:34;;;;;;;1.58;0.40;;;12.90;99.90;;;;;;5024807;28;20064;-79
2024/04/05 06:57:00;;;;;;;2.53;0.50;;;13.00;99.90;;;;;;5054704;28;20040;-78
2024/04/05 06:59:28;;;;;;;2.95;0.68;;;13.00;99.90;;;;;;5041411;28;20089;-78
2024/04/05 07:01:55;;;;;;;3.17;0.80;;;13.00;99.90;;;;;;5036371;28;20051;-81
2024/04/05 07:04:23;;;;;;;1.42;0.43;;;13.10;99.90;;;;;;5085358;28;20491;-77
2024/04/05 07:06:50;;;;;;;3.80;1.08;;;13.10;99.90;;;;;;5038245;28;20047;-82
2024/04/05 07:09:20;;;;;;;3.97;0.75;;;13.20;99.90;;;;;;5051890;28;20085;-82
2024/04/05 07:11:46;;;;;;;5.28;0.80;;;13.20;99.90;;;;;;5083376;28;20055;-82
2024/04/05 07:14:14;;;;;;;3.92;0.70;;;13.30;99.90;;;;;;5062581;28;20392;-78
2024/04/05 07:16:40;;;;;;;2.75;0.52;;;13.40;99.90;;;;;;5047674;28;20563;-78
2024/04/05 07:19:06;;;;;;;1.83;0.57;;;13.50;99.90;;;;;;5043903;28;20051;-78
2024/04/05 07:21:32;;;;;;;5.13;0.63;;;13.50;99.90;;;;;;5046157;28;20044;-78
2024/04/05 07:23:58;;;;;;;3.65;0.60;;;13.60;99.90;;;;;;5055764;28;20056;-79
2024/04/05 07:26:24;;;;;;;2.60;0.50;;;13.60;99.90;;;;;;5040372;28;20048;-78
2024/04/05 07:28:51;;;;;;;2.60;0.50;;;13.60;99.90;;;;;;5056846;28;20056;-78
2024/04/05 07:31:17;;;;;;;2.28;0.80;;;13.70;99.90;;;;;;5047116;28;20047;-77
2024/04/05 07:33:43;;;;;;;3.00;0.57;;;13.70;99.90;;;;;;5043339;28;20048;-77
2024/04/05 07:36:10;;;;;;;5.95;1.15;;;13.70;99.90;;;;;;5029129;28;20072;-79
2024/04/05 07:38:36;;;;;;;4.90;0.80;;;13.70;99.90;;;;;;5053015;28;20488;-78
2024/04/05 07:41:05;;;;;;;3.20;0.52;;;13.70;99.90;;;;;;5069016;28;20060;-78
2024/04/05 07:43:32;;;;;;;4.40;0.60;;;13.70;99.90;;;;;;5050145;28;20066;-79
2024/04/05 07:45:58;;;;;;;3.15;0.50;;;13.70;99.90;;;;;;5036568;28;20067;-78
2024/04/05 07:48:25;;;;;;;3.42;0.50;;;13.70;99.90;;;;;;5056107;28;20040;-78
2024/04/05 07:50:51;;;;;;;2.95;0.70;;;13.70;99.90;;;;;;5036756;28;20047;-78
2024/04/05 07:53:19;;;;;;;3.25;0.45;;;13.80;99.90;;;;;;5054753;28;20072;-78
2024/04/05 07:55:45;;;;;;;2.10;0.90;;;13.80;99.90;;;;;;5043912;28;20048;-78
2024/04/05 07:58:11;;;;;;;3.40;0.65;;;13.80;99.90;;;;;;5036564;28;20044;-77
2024/04/05 08:00:37;;;;;;;5.70;0.60;;;13.80;99.90;;;;;;5032075;28;20044;-79
2024/04/05 08:03:03;;;;;;;4.13;1.10;;;13.90;99.90;;;;;;5059491;28;20052;-78
2024/04/05 08:05:29;;;;;;;3.03;0.70;;;14.00;99.90;;;;;;5052825;28;20036;-78
2024/04/05 08:07:56;;;;;;;4.00;0.68;;;14.00;99.90;;;;;;5051355;28;20045;-78
2024/04/05 08:10:22;;;;;;;3.38;0.77;;;14.00;99.90;;;;;;5003640;28;20037;-78
2024/04/05 08:12:51;;;;;;;4.13;0.50;;;14.10;99.90;;;;;;5036960;28;20040;-78
2024/04/05 08:15:17;;;;;;;2.92;0.60;;;14.10;99.90;;;;;;5041343;28;20063;-79
2024/04/05 08:17:43;;;;;;;4.95;0.75;;;14.10;99.90;;;;;;5060977;28;20523;-78
2024/04/05 08:20:09;;;;;;;3.92;0.60;;;14.10;99.90;;;;;;5042382;28;20064;-78
2024/04/05 08:22:35;;;;;;;3.53;0.55;;;14.10;99.90;;;;;;5039576;28;20083;-78
2024/04/05 08:25:01;;;;;;;3.97;0.95;;;14.10;99.90;;;;;;5039523;28;20135;-78
2024/04/05 08:27:31;;;;;;;7.13;1.10;;;14.00;99.90;;;;;;5042188;28;20100;-78
2024/04/05 08:29:58;;;;;;;2.53;0.63;;;14.00;99.90;;;;;;5030904;28;20953;-78
2024/04/05 08:32:24;;;;;;;3.17;0.60;;;13.90;99.90;;;;;;5039440;28;20041;-78
2024/04/05 08:34:51;;;;;;;5.00;0.93;;;13.90;99.90;;;;;;5036276;28;20056;-79
2024/04/05 08:37:18;;;;;;;2.75;0.60;;;13.90;99.90;;;;;;5038122;28;20127;-78
2024/04/05 08:39:44;;;;;;;4.65;0.80;;;13.90;99.90;;;;;;5050130;28;20052;-77
2024/04/05 08:42:12;;;;;;;1.73;0.70;;;13.90;99.90;;;;;;5038145;28;20449;-78
2024/04/05 08:44:42;;;;;;;3.92;0.90;;;13.90;99.90;;;;;;5052277;28;20099;-78
2024/04/05 08:47:08;;;;;;;4.03;1.20;;;14.00;99.90;;;;;;5051544;28;20032;-78
2024/04/05 08:49:35;;;;;;;2.90;0.80;;;14.00;99.90;;;;;;5055512;28;20032;-78
2024/04/05 08:52:01;;;;;;;2.90;1.35;;;14.00;99.90;;;;;;5038604;28;20056;-77
2024/04/05 08:54:29;;;;;;;4.13;0.75;;;14.00;99.90;;;;;;5055277;28;20362;-77
2024/04/05 08:56:58;;;;;;;4.28;0.70;;;14.00;99.90;;;;;;5051872;28;20045;-77
2024/04/05 08:59:28;;;;;;;3.42;0.85;;;14.00;99.90;;;;;;5068757;28;20047;-77
2024/04/05 09:01:58;;;;;;;3.53;1.00;;;14.00;99.90;;;;;;5049524;28;20396;-78
2024/04/05 09:04:25;;;;;;;3.33;0.80;;;14.00;99.90;;;;;;5041666;28;20044;-78
2024/04/05 09:06:54;;;;;;;5.70;1.67;;;14.00;99.90;;;;;;5042532;28;20049;-77
2024/04/05 09:09:31;;;;;;;4.95;0.90;;;14.00;99.90;;;;;;5054962;28;20055;-77
2024/04/05 09:12:21;;;;;;;5.10;1.20;;;14.00;99.90;;;;;;5045632;28;20629;-77
2024/04/05 09:14:58;;;;;;;4.65;1.45;;;14.00;99.90;;;;;;5030879;28;20403;-77
2024/04/05 09:17:25;;;;;;;5.03;1.35;;;14.00;99.90;;;;;;5074724;28;20043;-77
2024/04/05 09:20:06;;;;;;;4.20;1.10;;;14.00;99.90;;;;;;5069634;28;20045;-77
2024/04/05 09:22:32;;;;;;;5.47;1.92;;;14.00;99.90;;;;;;5053553;28;20064;-77
2024/04/05 09:25:03;;;;;;;3.35;0.93;;;13.90;99.90;;;;;;5022373;28;20548;-77
2024/04/05 09:27:30;;;;;;;4.63;1.08;;;13.80;99.90;;;;;;5050118;28;20040;-77
2024/04/05 09:30:08;;;;;;;5.72;1.27;;;13.80;99.90;;;;;;5060712;28;20074;-77
2024/04/05 09:32:35;;;;;;;5.30;1.10;;;13.80;99.90;;;;;;5063239;28;20043;-77
2024/04/05 09:35:03;;;;;;;1.75;0.57;;;13.80;99.90;;;;;;5074165;28;20392;-77
2024/04/05 09:37:29;;;;;;;3.85;0.80;;;13.70;99.90;;;;;;5054906;28;20032;-81
2024/04/05 09:39:55;;;;;;;3.70;1.00;;;13.70;99.90;;;;;;5035007;28;20103;-77
2024/04/05 09:42:22;;;;;;;2.92;0.80;;;13.70;99.90;;;;;;5078382;28;20496;-78
2024/04/05 09:44:58;;;;;;;3.63;0.80;;;13.70;99.90;;;;;;5057740;28;20037;-78
2024/04/05 09:47:27;;;;;;;4.00;0.60;;;13.70;99.90;;;;;;5038160;28;20052;-78
2024/04/05 09:49:54;;;;;;;3.50;0.85;;;13.70;99.90;;;;;;5060434;28;20048;-78
2024/04/05 09:52:33;;;;;;;5.78;0.90;;;13.80;99.90;;;;;;5086296;28;20492;-77
2024/04/05 09:55:00;;;;;;;3.92;0.70;;;13.70;99.90;;;;;;5043464;28;20448;-78
2024/04/05 09:57:30;;;;;;;3.47;0.80;;;13.70;99.90;;;;;;5054318;28;20037;-77
2024/04/05 09:59:57;;;;;;;4.07;1.08;;;13.70;99.90;;;;;;5057383;28;20060;-78
2024/04/05 10:02:25;;;;;;;3.20;0.75;;;13.70;99.90;;;;;;5038144;28;20190;-78
2024/04/05 10:04:51;;;;;;;4.28;0.80;;;13.70;99.90;;;;;;5035233;28;20067;-79
2024/04/05 10:07:25;;;;;;;3.30;0.90;;;13.70;99.90;;;;;;5039526;28;20135;-78
2024/04/05 10:09:52;;;;;;;3.72;0.98;;;13.80;99.90;;;;;;5034156;28;20094;-78
2024/04/05 10:12:20;;;;;;;3.08;0.80;;;13.80;99.90;;;;;;5042156;28;20049;-78
2024/04/05 10:14:53;;;;;;;3.65;0.82;;;13.90;99.90;;;;;;5040211;28;20030;-78
2024/04/05 10:17:26;;;;;;;2.35;0.70;;;14.00;99.90;;;;;;5038219;28;20041;-78
2024/04/05 10:20:03;;;;;;;4.65;1.05;;;14.00;99.90;;;;;;5068961;28;20040;-78
2024/04/05 10:22:29;;;;;;;1.98;0.60;;;14.10;99.90;;;;;;5064362;28;20049;-82
2024/04/05 10:24:55;;;;;;;1.83;0.60;;;14.30;99.90;;;;;;5057564;28;20036;-84
2024/04/05 10:27:24;;;;;;;2.10;0.88;;;14.50;99.90;;;;;;5041322;28;20056;-85
2024/04/05 10:30:00;;;;;;;2.55;0.68;;;14.70;99.90;;;;;;5045220;28;20065;-83
2024/04/05 10:32:28;;;;;;;3.10;1.23;;;14.80;99.90;;;;;;5032931;28;20041;-80
2024/04/05 10:35:13;;;;;;;4.00;1.10;;;14.90;99.90;;;;;;5005106;28;20404;-83
2024/04/05 10:37:40;;;;;;;2.30;0.70;;;14.90;99.90;;;;;;5047693;28;20072;-82
2024/04/05 10:40:13;;;;;;;3.63;1.08;;;14.90;99.90;;;;;;5061657;28;20048;-80
2024/04/05 10:42:40;;;;;;;2.35;0.80;;;14.90;99.90;;;;;;5042020;28;21139;-82
2024/04/05 10:45:07;;;;;;;3.35;0.73;;;14.80;99.90;;;;;;5041023;28;20098;-82
2024/04/05 10:47:35;;;;;;;3.47;0.80;;;14.90;99.90;;;;;;5041044;28;20041;-82
2024/04/05 10:50:05;;;;;;;3.25;0.90;;;15.00;99.90;;;;;;5037704;28;20459;-81
2024/04/05 10:52:35;;;;;;;5.15;0.95;;;15.10;99.90;;;;;;5036635;28;20052;-82
2024/04/05 10:55:10;;;;;;;4.65;0.77;;;15.30;99.90;;;;;;5048432;28;20058;-82
2024/04/05 10:57:37;;;;;;;2.40;0.93;;;15.30;99.90;;;;;;5040908;28;20055;-83
2024/04/05 11:00:04;;;;;;;5.32;0.88;;;15.40;99.90;;;;;;5040363;28;20102;-82
2024/04/05 11:02:34;;;;;;;2.42;0.90;;;15.40;99.90;;;;;;5061545;28;20052;-81
2024/04/05 11:05:06;;;;;;;3.28;0.88;;;15.40;99.90;;;;;;5030502;28;20044;-82
2024/04/05 11:07:33;;;;;;;4.25;1.08;;;15.50;99.90;;;;;;5054981;28;20051;-82
2024/04/05 11:10:00;;;;;;;3.50;0.80;;;15.40;99.90;;;;;;5042961;28;20037;-81
2024/04/05 11:12:26;;;;;;;2.88;0.77;;;15.40;99.90;;;;;;5041924;28;20067;-81
2024/04/05 11:15:04;;;;;;;2.17;0.70;;;15.40;99.90;;;;;;5024952;28;20039;-82
2024/04/05 11:17:30;;;;;;;2.17;0.80;;;15.40;99.90;;;;;;5037504;28;20044;-81
2024/04/05 11:20:07;;;;;;;3.08;0.93;;;15.40;99.90;;;;;;5050752;28;20037;-81
2024/04/05 11:22:34;;;;;;;2.72;0.68;;;15.40;99.90;;;;;;5028264;28;20504;-82
2024/04/05 11:25:00;;;;;;;4.68;1.17;;;15.50;99.90;;;;;;5060475;28;20511;-81
2024/04/05 11:27:29;;;;;;;3.03;1.33;;;15.50;99.90;;;;;;5040358;28;20089;-80
2024/04/05 11:29:55;;;;;;;4.13;0.90;;;15.50;99.90;;;;;;5054565;28;20040;-81
2024/04/05 11:32:29;;;;;;;3.60;0.80;;;15.60;99.90;;;;;;5038803;28;20045;-82
2024/04/05 11:34:56;;;;;;;3.30;0.95;;;15.60;99.90;;;;;;5046738;28;20048;-82
2024/04/05 11:37:26;;;;;;;1.95;0.70;;;15.60;99.90;;;;;;5037103;28;20045;-82
2024/04/05 11:39:52;;;;;;;4.05;0.80;;;15.60;99.90;;;;;;5041420;28;20041;-82
2024/04/05 11:42:18;;;;;;;2.78;0.90;;;15.70;99.90;;;;;;5041763;28;20090;-82
2024/04/05 11:44:44;;;;;;;3.53;0.90;;;15.60;99.90;;;;;;5044604;28;20044;-82
2024/04/05 11:47:11;;;;;;;2.35;0.80;;;15.70;99.90;;;;;;5052402;28;20040;-82
2024/04/05 11:49:37;;;;;;;4.18;0.80;;;15.70;99.90;;;;;;5042712;28;20037;-82
2024/04/05 11:52:03;;;;;;;2.47;0.93;;;15.70;99.90;;;;;;5047644;28;20040;-83
2024/04/05 11:54:30;;;;;;;4.55;1.13;;;15.60;99.90;;;;;;5043607;28;20091;-80
2024/04/05 11:56:56;;;;;;;2.67;0.60;;;15.40;99.90;;;;;;5033093;28;20045;-79
2024/04/05 11:59:22;;;;;;;2.50;0.60;;;15.30;99.90;;;;;;5053476;28;20043;-80
2024/04/05 12:01:49;;;;;;;4.20;0.85;;;15.20;99.90;;;;;;5046332;28;20508;-80
2024/04/05 12:04:15;;;;;;;1.58;0.55;;;15.10;99.90;;;;;;5056246;28;20123;-79
2024/04/05 12:06:41;;;;;;;1.83;0.60;;;15.10;99.90;;;;;;5026971;28;20072;-79
2024/04/05 12:09:46;;;;;;;1.55;0.70;;;15.00;99.90;;;;;;5040776;28;20044;-80
2024/04/05 12:12:13;;;;;;;2.67;0.80;;;15.00;99.90;;;;;;5039503;28;20493;-80
2024/04/05 12:14:39;;;;;;;2.40;0.80;;;14.90;99.90;;;;;;5039449;28;20123;-82
2024/04/05 12:17:05;;;;;;;3.85;0.93;;;14.80;99.90;;;;;;5035916;28;20049;-79
2024/04/05 12:19:31;;;;;;;2.65;0.90;;;14.80;99.90;;;;;;5065842;28;20135;-79
2024/04/05 12:21:57;;;;;;;2.38;0.90;;;14.80;99.90;;;;;;5039330;28;20052;-79
2024/04/05 12:24:24;;;;;;;3.58;1.00;;;14.80;99.90;;;;;;5055611;28;20056;-79
2024/04/05 12:26:53;;;;;;;3.78;0.90;;;14.80;99.90;;;;;;5039022;28;20076;-79
2024/04/05 12:29:19;;;;;;;2.90;1.30;;;14.80;99.90;;;;;;5035717;28;20394;-79
2024/04/05 12:31:46;;;;;;;3.40;0.73;;;14.90;99.90;;;;;;5037636;28;20044;-79
2024/04/05 12:34:12;;;;;;;3.17;0.85;;;14.90;99.90;;;;;;5050867;28;20056;-80
2024/04/05 12:36:39;;;;;;;2.15;0.57;;;15.00;99.90;;;;;;5052897;28;20047;-80
2024/04/05 12:39:14;;;;;;;1.23;0.50;;;15.10;99.90;;;;;;5039731;28;20048;-83
2024/04/05 12:41:41;;;;;;;3.33;0.70;;;15.10;99.90;;;;;;5065672;28;20507;-79
2024/04/05 12:44:07;;;;;;;4.25;0.70;;;15.20;99.90;;;;;;5024038;28;20051;-79
2024/04/05 12:46:33;;;;;;;3.35;1.27;;;15.20;99.90;;;;;;5037915;28;20032;-80
2024/04/05 12:48:59;;;;;;;2.33;0.70;;;15.20;99.90;;;;;;5025031;28;20105;-80